This is the latest recevied weather packets stored in our database for station/object HS5GDX-4. If no packets are shown the sender has not sent any weather packets the latest 10 day(s).
| Time | Temp. | Humidity | Pressure | Rain* | Wind** | Luminosity | Snow |
|---|---|---|---|---|---|---|---|
| 1777498161 | 32.22° C | 44% | 966 hPa | - | - | 0 W/m² | - |
| 1777497231 | 33.33° C | 42% | 966 hPa | - | - | 0 W/m² | - |
| 1777496302 | 31.67° C | 46% | 966 hPa | - | - | 0 W/m² | - |
| 1777495373 | 32.22° C | 45% | 966 hPa | - | - | 0 W/m² | - |
| 1777494444 | 32.78° C | 44% | 966 hPa | - | - | 0 W/m² | - |
| 1777493515 | 32.78° C | 42% | 966 hPa | - | - | 0 W/m² | - |
| 1777492584 | 33.33° C | 42% | 966 hPa | - | - | 0 W/m² | - |
| 1777491657 | 32.78° C | 43% | 966 hPa | - | - | 0 W/m² | - |
| 1777490727 | 33.33° C | 43% | 966 hPa | - | - | 0 W/m² | - |
| 1777489799 | 33.33° C | 42% | 966 hPa | - | - | 0 W/m² | - |
| 1777488871 | 33.33° C | 42% | 966 hPa | - | - | 0 W/m² | - |
| 1777487942 | 34.44° C | 40% | 966 hPa | - | - | 0 W/m² | - |
| 1777487013 | 33.33° C | 43% | 967 hPa | - | - | 0 W/m² | - |
| 1777486085 | 33.33° C | 43% | 967 hPa | - | - | 0 W/m² | - |
| 1777485157 | 33.33° C | 44% | 968 hPa | - | - | 0 W/m² | - |
| 1777484228 | 33.33° C | 43% | 968 hPa | - | - | 0 W/m² | - |
| 1777483299 | 33.33° C | 43% | 968 hPa | - | - | 0 W/m² | - |
| 1777482370 | 33.33° C | 42% | 968 hPa | - | - | 0 W/m² | - |
| 1777481441 | 33.33° C | 42% | 968 hPa | - | - | 0 W/m² | - |
| 1777480513 | 33.33° C | 41% | 968 hPa | - | - | 0 W/m² | - |
| 1777479583 | 33.33° C | 43% | 968 hPa | - | - | 0 W/m² | - |
| 1777478655 | 33.33° C | 42% | 968 hPa | - | - | 0 W/m² | - |
| 1777477727 | 33.89° C | 41% | 967 hPa | - | - | 0 W/m² | - |
| 1777476796 | 33.89° C | 41% | 967 hPa | - | - | 0 W/m² | - |
| 1777475868 | 33.89° C | 42% | 967 hPa | - | - | 0 W/m² | - |
* Rain since midnight (hover to see other rain measurements)
** Current wind speed in m/s (hover to see current wind gust speed)